Time;durP1;ratioP1;P1;durP2;ratioP2;P2;SDS_P1;SDS_P2;PMS_P1;PMS_P2;Temp;Humidity;BMP_temperature;BMP_pressure;BME280_temperature;BME280_humidity;BME280_pressure;Samples;Min_cycle;Max_cycle;Signal;HPM_P1;HPM_P2
2022/06/15 00:00:42;;;;;;;2.40;1.27;;;;;;;11.68;85.78;101596.75;5035538;28;20872;-73
2022/06/15 00:03:10;;;;;;;2.30;1.87;;;;;;;11.78;86.00;101604.84;5035273;28;20941;-73
2022/06/15 00:05:38;;;;;;;2.13;1.43;;;;;;;11.77;85.79;101596.97;5035508;28;20454;-74
2022/06/15 00:08:05;;;;;;;2.20;1.70;;;;;;;11.77;85.13;101594.25;5035294;28;20451;-73
2022/06/15 00:10:32;;;;;;;2.80;1.43;;;;;;;11.72;85.02;101592.38;5035290;28;20470;-73
2022/06/15 00:12:58;;;;;;;2.07;1.33;;;;;;;11.71;85.93;101590.75;5035376;28;20470;-73
2022/06/15 00:15:25;;;;;;;2.43;1.70;;;;;;;11.64;86.05;101592.97;5035324;28;20467;-73
2022/06/15 00:17:51;;;;;;;2.63;1.70;;;;;;;11.70;85.96;101589.16;5034944;28;20537;-73
2022/06/15 00:20:18;;;;;;;1.20;1.10;;;;;;;11.71;85.00;101579.91;5035478;28;20493;-73
2022/06/15 00:22:46;;;;;;;5.30;1.40;;;;;;;11.63;85.81;101583.22;5034890;28;20545;-74
2022/06/15 00:25:13;;;;;;;1.33;1.10;;;;;;;11.55;86.23;101586.53;5034862;28;20470;-73
2022/06/15 00:27:40;;;;;;;2.33;1.87;;;;;;;11.58;86.23;101580.56;5034817;28;20808;-73
2022/06/15 00:30:08;;;;;;;2.33;1.67;;;;;;;11.62;85.35;101577.00;5035021;28;20574;-74
2022/06/15 00:32:34;;;;;;;3.60;1.97;;;;;;;11.41;86.89;101575.50;5034884;28;20482;-74
2022/06/15 00:35:01;;;;;;;2.93;1.90;;;;;;;11.47;86.76;101568.19;5034946;28;20482;-73
2022/06/15 00:37:28;;;;;;;2.30;1.83;;;;;;;11.45;86.91;101582.00;5034876;28;20439;-74
2022/06/15 00:39:56;;;;;;;1.27;0.93;;;;;;;11.35;87.16;101568.53;5034567;28;20522;-74
2022/06/15 00:42:22;;;;;;;3.27;1.60;;;;;;;11.43;86.51;101577.97;5034739;28;20559;-73
2022/06/15 00:44:50;;;;;;;2.60;1.67;;;;;;;11.37;87.14;101582.59;5034296;28;20529;-74
2022/06/15 00:47:21;;;;;;;2.37;1.50;;;;;;;11.37;86.91;101583.41;5034697;28;20443;-74
2022/06/15 00:49:52;;;;;;;3.20;1.73;;;;;;;11.39;86.74;101587.75;5034626;28;20554;-73
2022/06/15 00:52:24;;;;;;;2.03;1.60;;;;;;;11.34;85.57;101585.88;5034626;28;20545;-72
2022/06/15 00:54:51;;;;;;;3.30;1.60;;;;;;;11.22;85.70;101588.94;5034617;28;20431;-73
2022/06/15 00:57:20;;;;;;;1.47;1.37;;;;;;;11.13;84.93;101590.63;5034145;28;20987;-73
2022/06/15 00:59:53;;;;;;;2.07;1.33;;;;;;;11.02;84.52;101591.75;5034461;28;20847;-73
2022/06/15 01:02:20;;;;;;;2.63;1.43;;;;;;;10.96;83.94;101592.88;5034426;28;20487;-73
2022/06/15 01:04:50;;;;;;;2.27;1.90;;;;;;;11.00;85.09;101591.22;5034393;28;20526;-73
2022/06/15 01:07:34;;;;;;;2.50;1.50;;;;;;;10.92;87.13;101589.09;5034383;28;20534;-73
2022/06/15 01:10:12;;;;;;;3.10;1.87;;;;;;;10.95;87.46;101593.97;5033917;28;20475;-73
2022/06/15 01:12:53;;;;;;;2.93;1.63;;;;;;;10.89;87.79;101589.66;5034138;28;20554;-73
2022/06/15 01:15:32;;;;;;;2.97;1.37;;;;;;;10.83;87.27;101586.97;5033894;28;20977;-73
2022/06/15 01:18:15;;;;;;;1.47;1.20;;;;;;;10.82;85.71;101581.81;5033826;28;20514;-73
2022/06/15 01:20:51;;;;;;;2.50;1.70;;;;;;;10.70;84.63;101575.91;5033936;28;20428;-73
2022/06/15 01:23:55;;;;;;;2.70;1.70;;;;;;;10.66;84.76;101575.66;5033769;28;20562;-73
2022/06/15 01:27:02;;;;;;;2.70;1.40;;;;;;;10.58;87.02;101573.50;5034006;28;20454;-73
2022/06/15 01:29:57;;;;;;;1.90;1.47;;;;;;;10.62;88.03;101580.00;4985050;28;20582;-73
2022/06/15 01:32:32;;;;;;;2.83;1.90;;;;;;;10.64;88.20;101583.25;5030142;28;21063;-73
2022/06/15 01:35:03;;;;;;;3.57;2.00;;;;;;;10.61;89.11;101587.31;5033884;28;20438;-73
2022/06/15 01:37:39;;;;;;;8.33;1.63;;;;;;;10.64;88.92;101583.25;5033835;28;20526;-73
2022/06/15 01:40:15;;;;;;;1.97;1.47;;;;;;;10.63;89.37;101581.63;5033814;28;20868;-74
2022/06/15 01:42:48;;;;;;;7.53;2.43;;;;;;;10.66;88.26;101581.06;5033648;28;20541;-73
2022/06/15 01:45:19;;;;;;;3.60;2.03;;;;;;;10.61;89.07;101583.81;5033655;28;20461;-74
2022/06/15 01:47:50;;;;;;;5.00;1.50;;;;;;;10.58;89.28;101584.34;5033937;28;20423;-75
2022/06/15 01:50:23;;;;;;;3.97;1.80;;;;;;;10.45;89.60;101572.22;5033761;28;20503;-75
2022/06/15 01:52:55;;;;;;;2.30;2.00;;;;;;;10.48;89.70;101571.66;5033507;28;20486;-75
2022/06/15 01:55:26;;;;;;;5.73;2.13;;;;;;;10.49;89.67;101567.03;5033587;28;20481;-74
2022/06/15 01:57:56;;;;;;;2.63;1.80;;;;;;;10.51;89.55;101578.44;5033052;28;20432;-73
2022/06/15 02:00:23;;;;;;;3.40;1.73;;;;;;;10.56;89.39;101578.41;5033112;28;21008;-74
2022/06/15 02:03:02;;;;;;;5.77;1.73;;;;;;;10.44;90.04;101573.28;5033327;28;20486;-74
2022/06/15 02:05:38;;;;;;;4.00;2.30;;;;;;;10.44;89.74;101567.06;5033462;28;20427;-74
2022/06/15 02:08:12;;;;;;;6.10;1.90;;;;;;;10.46;89.79;101571.13;5033502;28;20879;-73
2022/06/15 02:10:49;;;;;;;2.03;1.83;;;;;;;10.58;88.64;101579.75;5033171;28;20566;-74
2022/06/15 02:13:23;;;;;;;6.10;2.83;;;;;;;10.56;86.84;101575.69;5033089;28;21010;-73
2022/06/15 02:15:52;;;;;;;2.20;2.00;;;;;;;10.37;85.63;101572.78;5032990;28;20471;-74
2022/06/15 02:18:23;;;;;;;3.83;2.27;;;;;;;10.34;85.16;101573.31;5033265;28;20473;-74
2022/06/15 02:20:55;;;;;;;12.93;2.20;;;;;;;10.33;84.19;101572.50;5033177;28;20542;-74
2022/06/15 02:23:24;;;;;;;2.70;2.00;;;;;;;10.22;84.79;101565.44;5033083;28;20915;-73
2022/06/15 02:25:53;;;;;;;3.43;1.93;;;;;;;10.27;85.52;101568.22;5033157;28;20447;-73
2022/06/15 02:28:26;;;;;;;2.70;1.60;;;;;;;10.25;87.15;101559.53;5033356;28;20526;-73
2022/06/15 02:30:53;;;;;;;2.00;1.67;;;;;;;10.27;87.64;101554.66;5032683;28;20996;-73
2022/06/15 02:33:27;;;;;;;3.50;1.77;;;;;;;10.32;87.89;101560.06;5033119;28;20450;-73
2022/06/15 02:35:54;;;;;;;2.37;2.00;;;;;;;10.25;88.70;101564.13;5032754;28;20514;-73
2022/06/15 02:38:22;;;;;;;9.40;2.70;;;;;;;10.25;88.58;101559.53;5033037;28;20508;-73
2022/06/15 02:40:48;;;;;;;2.73;1.87;;;;;;;10.27;88.14;101564.66;5032645;28;20439;-73
2022/06/15 02:43:18;;;;;;;7.10;2.20;;;;;;;10.19;89.05;101565.22;5033090;28;20447;-73
2022/06/15 02:45:47;;;;;;;3.00;1.60;;;;;;;10.13;89.54;101564.41;5032675;28;20423;-73
2022/06/15 02:48:16;;;;;;;7.60;2.43;;;;;;;10.08;89.86;101556.28;5032666;28;20937;-73
2022/06/15 02:50:51;;;;;;;2.67;2.17;;;;;;;10.03;89.65;101556.28;5032750;28;20569;-73
2022/06/15 02:53:21;;;;;;;3.90;2.40;;;;;;;10.06;89.42;101566.59;5033061;28;20420;-73
2022/06/15 02:55:50;;;;;;;3.17;1.97;;;;;;;10.08;89.33;101565.22;5033212;28;20474;-73
2022/06/15 02:58:25;;;;;;;4.37;2.30;;;;;;;10.11;89.00;101561.97;5032892;28;20530;-73
2022/06/15 03:00:52;;;;;;;2.33;1.80;;;;;;;10.21;88.62;101565.75;5032551;28;20463;-73
2022/06/15 03:03:19;;;;;;;4.47;1.73;;;;;;;10.18;88.92;101556.28;5032430;28;20478;-73
2022/06/15 03:05:48;;;;;;;2.83;1.60;;;;;;;10.00;89.73;101573.88;5032789;28;20474;-73
2022/06/15 03:08:15;;;;;;;2.90;2.23;;;;;;;9.97;90.23;101563.63;5032750;28;20469;-72
2022/06/15 03:10:42;;;;;;;4.80;2.20;;;;;;;10.04;89.54;101563.31;5035792;28;20593;-72
2022/06/15 03:13:08;;;;;;;3.73;1.97;;;;;;;10.12;89.59;101570.91;5036499;28;20475;-72
2022/06/15 03:15:35;;;;;;;2.13;1.63;;;;;;;10.04;89.56;101574.16;5036389;28;20439;-72
2022/06/15 03:18:02;;;;;;;4.10;2.43;;;;;;;10.01;89.72;101564.69;5036050;28;21020;-72
2022/06/15 03:20:30;;;;;;;4.27;2.50;;;;;;;10.08;88.21;101564.41;5036298;28;20479;-72
2022/06/15 03:22:58;;;;;;;3.03;2.17;;;;;;;10.01;86.38;101569.31;5036024;28;20533;-73
2022/06/15 03:25:25;;;;;;;4.60;2.00;;;;;;;9.93;85.16;101575.25;5035945;28;21026;-73
2022/06/15 03:27:52;;;;;;;2.33;1.70;;;;;;;9.94;85.43;101569.56;5036435;28;20700;-73
2022/06/15 03:30:19;;;;;;;2.30;1.90;;;;;;;9.96;85.47;101572.84;5036080;28;20548;-73
2022/06/15 03:32:46;;;;;;;3.30;2.27;;;;;;;10.03;86.48;101573.34;5035675;28;21060;-72
2022/06/15 03:35:13;;;;;;;2.57;1.77;;;;;;;10.07;87.96;101574.44;5035705;28;20538;-72
2022/06/15 03:37:40;;;;;;;3.20;1.67;;;;;;;10.03;89.40;101578.75;5035599;28;20534;-72
2022/06/15 03:40:10;;;;;;;1.80;1.50;;;;;;;10.09;89.81;101576.84;5036001;28;20473;-72
2022/06/15 03:42:40;;;;;;;3.80;2.17;;;;;;;10.09;90.29;101584.97;5035660;28;20534;-72
2022/06/15 03:45:08;;;;;;;2.50;2.03;;;;;;;10.12;90.31;101570.91;5035851;28;20446;-72
2022/06/15 03:47:34;;;;;;;3.83;2.60;;;;;;;10.11;90.90;101577.41;5035519;28;20526;-72
2022/06/15 03:50:01;;;;;;;2.33;1.90;;;;;;;10.23;90.90;101575.22;5035729;28;20526;-72
2022/06/15 03:52:28;;;;;;;4.40;2.70;;;;;;;10.36;90.80;101579.28;5035466;28;21078;-72
2022/06/15 03:54:55;;;;;;;5.53;2.40;;;;;;;10.46;90.72;101581.16;5035714;28;20439;-72
2022/06/15 03:57:23;;;;;;;2.97;2.10;;;;;;;10.29;92.31;101566.03;5035385;28;21040;-72
2022/06/15 03:59:50;;;;;;;2.50;1.80;;;;;;;10.34;92.25;101568.72;5035631;28;20521;-72
2022/06/15 04:02:16;;;;;;;3.40;1.93;;;;;;;10.46;91.27;101570.31;5035524;28;20493;-72
2022/06/15 04:04:43;;;;;;;5.80;2.10;;;;;;;10.43;88.95;101565.44;5035569;28;20526;-72
2022/06/15 04:09:52;;;;;;;3.23;1.73;;;;;;;10.47;89.27;101551.06;5034206;28;20558;-73
2022/06/15 04:12:18;;;;;;;4.27;1.70;;;;;;;10.48;89.15;101549.97;5035311;28;20494;-73
2022/06/15 04:14:46;;;;;;;3.50;2.10;;;;;;;10.58;91.58;101562.66;5035295;28;20453;-73
2022/06/15 04:17:13;;;;;;;3.90;2.23;;;;;;;10.58;93.64;101562.66;5035285;28;20530;-73
2022/06/15 04:19:40;;;;;;;3.20;1.93;;;;;;;10.64;94.55;101563.47;5034894;28;20443;-73
2022/06/15 04:22:06;;;;;;;2.10;1.90;;;;;;;10.70;95.24;101565.88;5036338;28;20522;-72
2022/06/15 04:24:33;;;;;;;2.00;1.70;;;;;;;10.91;94.86;101566.59;5035028;28;20546;-70
2022/06/15 04:27:00;;;;;;;3.20;2.07;;;;;;;10.99;94.92;101567.94;5035104;28;20530;-70
2022/06/15 04:29:27;;;;;;;2.80;1.90;;;;;;;11.07;94.77;101564.63;5035024;28;20874;-70
2022/06/15 04:31:55;;;;;;;1.93;1.40;;;;;;;11.21;94.43;101565.63;5034926;28;20545;-70
2022/06/15 04:34:22;;;;;;;3.23;2.33;;;;;;;11.35;94.50;101566.59;5034718;28;20895;-70
2022/06/15 04:36:48;;;;;;;2.00;1.80;;;;;;;11.44;94.87;101571.44;5034596;28;20447;-70
2022/06/15 04:39:15;;;;;;;4.33;2.43;;;;;;;11.55;95.25;101572.97;5034856;28;20534;-70
2022/06/15 04:41:43;;;;;;;2.43;1.60;;;;;;;11.57;96.11;101570.81;5034765;28;20459;-70
2022/06/15 04:44:13;;;;;;;2.70;1.87;;;;;;;11.80;94.86;101572.78;5034803;28;20477;-70
2022/06/15 04:46:40;;;;;;;4.20;1.83;;;;;;;11.90;94.77;101571.09;5034744;28;20514;-70
2022/06/15 04:49:08;;;;;;;1.90;1.50;;;;;;;12.09;94.28;101577.44;5034677;28;20470;-70
2022/06/15 04:51:41;;;;;;;4.30;2.10;;;;;;;12.28;94.22;101572.09;5034573;28;20490;-70
2022/06/15 04:54:09;;;;;;;2.50;2.30;;;;;;;12.41;93.54;101571.41;5034759;28;20450;-70
2022/06/15 04:56:37;;;;;;;6.23;1.83;;;;;;;12.56;94.42;101573.13;5034233;28;20443;-70
2022/06/15 04:59:04;;;;;;;3.97;2.37;;;;;;;12.68;94.82;101565.38;5034474;28;20451;-71
2022/06/15 05:01:30;;;;;;;5.60;2.50;;;;;;;12.73;95.42;101562.59;5034055;28;21015;-71
2022/06/15 05:03:57;;;;;;;8.00;2.20;;;;;;;12.76;95.83;101556.56;5034434;28;20522;-71
2022/06/15 05:06:34;;;;;;;2.53;1.90;;;;;;;12.83;93.88;101565.16;5034052;28;20968;-71
2022/06/15 05:09:01;;;;;;;2.23;1.90;;;;;;;12.87;93.20;101555.31;5033972;28;20463;-71
2022/06/15 05:11:28;;;;;;;3.00;2.10;;;;;;;12.90;92.54;101553.13;5034084;28;20487;-71
2022/06/15 05:13:54;;;;;;;3.90;2.57;;;;;;;13.04;91.59;101568.44;5033907;28;20534;-71
2022/06/15 05:16:21;;;;;;;3.20;2.00;;;;;;;13.19;92.41;101563.88;5034241;28;20955;-72
2022/06/15 05:18:48;;;;;;;3.60;2.30;;;;;;;13.33;94.15;101571.03;5034137;28;20537;-75
2022/06/15 05:21:15;;;;;;;4.90;1.60;;;;;;;13.46;95.76;101560.50;5033992;28;20466;-72
2022/06/15 05:23:43;;;;;;;2.27;1.93;;;;;;;13.56;96.65;101563.06;5033773;28;20898;-72
2022/06/15 05:26:09;;;;;;;2.77;1.80;;;;;;;13.63;97.30;101563.47;5033924;28;20443;-72
2022/06/15 05:28:37;;;;;;;4.53;2.30;;;;;;;13.71;98.18;101565.53;5034157;28;20479;-72
2022/06/15 05:31:05;;;;;;;2.50;2.07;;;;;;;13.80;99.00;101573.81;5033604;28;20491;-72
2022/06/15 05:33:34;;;;;;;4.83;2.30;;;;;;;13.94;99.14;101569.22;5033343;28;20442;-72
2022/06/15 05:36:06;;;;;;;3.37;2.27;;;;;;;14.07;99.30;101573.88;5033385;28;20439;-72
2022/06/15 05:38:33;;;;;;;4.03;3.23;;;;;;;14.17;99.10;101570.19;5033643;28;20462;-72
2022/06/15 05:41:01;;;;;;;4.23;2.23;;;;;;;14.26;98.67;101579.28;5033102;28;20551;-72
2022/06/15 05:43:28;;;;;;;5.50;3.13;;;;;;;14.33;97.97;101574.22;5033767;28;20534;-72
2022/06/15 05:45:55;;;;;;;4.00;2.73;;;;;;;14.42;97.71;101576.25;5033650;28;20546;-72
2022/06/15 05:48:21;;;;;;;4.33;2.43;;;;;;;14.51;97.14;101585.38;5033683;28;20443;-72
2022/06/15 05:50:48;;;;;;;3.60;2.17;;;;;;;14.60;96.51;101581.63;5033167;28;20573;-72
2022/06/15 05:53:14;;;;;;;4.53;2.80;;;;;;;14.71;96.34;101581.44;5033530;28;20501;-72
2022/06/15 05:55:41;;;;;;;16.63;3.13;;;;;;;14.82;95.52;101577.38;5033542;28;20490;-72
2022/06/15 05:58:09;;;;;;;4.50;2.23;;;;;;;14.95;94.38;101586.66;5033152;28;20530;-72
2022/06/15 06:00:36;;;;;;;4.43;2.33;;;;;;;15.08;92.13;101588.56;5032981;28;20534;-73
2022/06/15 06:03:02;;;;;;;4.77;2.63;;;;;;;15.16;90.07;101576.91;5033149;28;20933;-73
2022/06/15 06:05:29;;;;;;;4.03;2.77;;;;;;;15.27;87.48;101583.78;5033324;28;20534;-73
2022/06/15 06:07:56;;;;;;;2.87;2.43;;;;;;;15.36;87.10;101587.38;5033369;28;20543;-71
2022/06/15 06:10:22;;;;;;;4.80;2.80;;;;;;;15.53;86.32;101596.81;5033243;28;20573;-71
2022/06/15 06:12:50;;;;;;;8.90;2.47;;;;;;;15.70;85.85;101596.97;5033220;28;20546;-71
2022/06/15 06:15:18;;;;;;;2.50;1.70;;;;;;;15.85;85.06;101596.59;5032933;28;20450;-71
2022/06/15 06:17:45;;;;;;;3.63;2.07;;;;;;;15.98;83.95;101594.09;5032927;28;20501;-71
2022/06/15 06:20:12;;;;;;;6.07;2.20;;;;;;;16.09;81.74;101598.19;5033418;28;20822;-72
2022/06/15 06:22:39;;;;;;;10.67;2.30;;;;;;;16.20;79.27;101585.84;5032646;28;21070;-71
2022/06/15 06:25:07;;;;;;;3.70;2.60;;;;;;;16.33;78.04;101589.59;5033270;28;20446;-71
2022/06/15 06:27:34;;;;;;;5.80;2.43;;;;;;;16.46;77.55;101593.34;5033138;28;20443;-72
2022/06/15 06:30:01;;;;;;;7.87;2.23;;;;;;;16.60;76.88;101588.56;5033910;28;20436;-72
2022/06/15 06:32:29;;;;;;;4.57;2.70;;;;;;;16.77;74.80;101590.59;5033090;28;20546;-71
2022/06/15 06:34:56;;;;;;;9.83;1.97;;;;;;;16.95;70.42;101591.44;5033085;28;20534;-74
2022/06/15 06:37:24;;;;;;;3.27;1.60;;;;;;;17.16;70.72;101597.91;5033010;28;20443;-74
2022/06/15 06:39:55;;;;;;;3.37;2.13;;;;;;;17.34;70.83;101574.88;5032723;28;20467;-74
2022/06/15 06:42:22;;;;;;;3.40;1.60;;;;;;;17.48;70.75;101582.13;5033039;28;20545;-73
2022/06/15 06:44:48;;;;;;;2.60;1.50;;;;;;;17.57;70.44;101585.66;5036438;28;20526;-72
2022/06/15 06:47:15;;;;;;;1.73;1.37;;;;;;;17.67;69.35;101585.34;5036998;28;20474;-73
2022/06/15 06:49:43;;;;;;;5.03;1.70;;;;;;;17.76;68.77;101586.19;5036655;28;21049;-73
2022/06/15 06:52:10;;;;;;;3.63;1.70;;;;;;;17.80;67.88;101584.41;5036419;28;20573;-73
2022/06/15 06:54:36;;;;;;;4.47;1.67;;;;;;;17.87;68.85;101594.84;5036798;28;20541;-73
2022/06/15 06:57:04;;;;;;;23.47;1.80;;;;;;;17.91;68.82;101584.84;5036853;28;20525;-72
2022/06/15 06:59:30;;;;;;;6.70;1.97;;;;;;;18.02;68.68;101586.13;5036454;28;20500;-72
2022/06/15 07:01:57;;;;;;;3.90;1.73;;;;;;;18.17;67.94;101587.53;5036332;28;21066;-73
2022/06/15 07:04:23;;;;;;;4.90;1.53;;;;;;;18.26;66.65;101584.75;5036795;28;20534;-72
2022/06/15 07:06:51;;;;;;;2.83;1.70;;;;;;;18.34;62.54;101587.47;5036641;28;20445;-72
2022/06/15 07:09:18;;;;;;;1.30;1.10;;;;;;;18.47;58.98;101590.31;5036606;28;20979;-73
2022/06/15 07:11:45;;;;;;;3.77;1.30;;;;;;;18.55;59.47;101586.72;5037312;28;20486;-73
2022/06/15 07:14:13;;;;;;;2.17;1.37;;;;;;;18.55;57.92;101587.53;5036658;28;20940;-73
2022/06/15 07:16:40;;;;;;;2.20;1.27;;;;;;;18.54;57.21;101590.59;5036707;28;20455;-72
2022/06/15 07:19:07;;;;;;;1.87;1.10;;;;;;;18.50;58.10;101584.16;5036307;28;20446;-73
2022/06/15 07:21:34;;;;;;;1.50;1.30;;;;;;;18.48;59.52;101594.66;5035965;28;20473;-72
2022/06/15 07:24:02;;;;;;;2.80;1.00;;;;;;;18.44;60.83;101586.28;5036069;28;20470;-72
2022/06/15 07:26:33;;;;;;;2.10;1.10;;;;;;;18.39;60.83;101583.72;5036399;28;20451;-72
2022/06/15 07:29:01;;;;;;;2.07;0.90;;;;;;;18.34;60.13;101587.47;5036289;28;20489;-72
2022/06/15 07:31:30;;;;;;;1.53;0.97;;;;;;;18.34;61.71;101581.97;5036416;28;20487;-72
2022/06/15 07:33:57;;;;;;;0.93;0.60;;;;;;;18.42;61.46;101585.81;5035847;28;21010;-72
2022/06/15 07:36:24;;;;;;;1.00;0.70;;;;;;;18.48;58.90;101586.44;5036087;28;20448;-72
2022/06/15 07:38:51;;;;;;;3.80;1.00;;;;;;;18.43;59.05;101589.38;5035755;28;20474;-72
2022/06/15 07:41:20;;;;;;;1.03;0.67;;;;;;;18.49;58.87;101588.03;5035841;28;20843;-72
2022/06/15 07:43:46;;;;;;;2.03;0.87;;;;;;;18.53;57.52;101583.50;5035961;28;20497;-72
2022/06/15 07:46:13;;;;;;;1.50;0.90;;;;;;;18.63;57.86;101585.88;5035966;28;20467;-73
2022/06/15 07:51:29;;;;;;;1.43;0.80;;;;;;;18.89;52.28;101586.53;5035540;28;20485;-72
2022/06/15 07:53:56;;;;;;;1.50;0.80;;;;;;;18.94;56.87;101590.25;5035807;28;20454;-73
2022/06/15 07:56:24;;;;;;;14.40;1.27;;;;;;;19.03;53.90;101582.75;5034860;28;20886;-72
2022/06/15 07:58:51;;;;;;;3.63;1.13;;;;;;;19.23;51.51;101579.22;5035406;28;21048;-72
2022/06/15 08:01:17;;;;;;;1.33;1.10;;;;;;;19.25;53.19;101582.41;5035583;28;20543;-73
2022/06/15 08:03:44;;;;;;;1.27;0.93;;;;;;;19.31;56.13;101581.09;5035810;28;20534;-72
2022/06/15 08:06:11;;;;;;;2.17;1.13;;;;;;;19.37;56.34;101584.44;5035495;28;20538;-73
2022/06/15 08:08:37;;;;;;;2.50;1.03;;;;;;;19.39;56.53;101587.66;5035474;28;20550;-73
2022/06/15 08:11:04;;;;;;;1.00;0.80;;;;;;;19.42;60.82;101581.47;5035308;28;20589;-74
2022/06/15 08:13:32;;;;;;;1.07;0.87;;;;;;;19.38;59.76;101586.84;5035418;28;20547;-73
2022/06/15 08:15:59;;;;;;;2.20;1.37;;;;;;;19.30;60.03;101585.00;5035400;28;20518;-78
2022/06/15 08:18:31;;;;;;;2.57;1.40;;;;;;;19.33;60.09;101591.72;5036817;28;20447;-73
2022/06/15 08:21:00;;;;;;;1.93;0.77;;;;;;;19.31;60.91;101589.34;5035223;28;20486;-72
2022/06/15 08:23:31;;;;;;;1.30;0.83;;;;;;;19.24;59.67;101580.81;5034860;28;20891;-72
2022/06/15 08:26:01;;;;;;;5.67;1.17;;;;;;;19.28;62.14;101578.22;5035141;28;20431;-71
2022/06/15 08:28:30;;;;;;;1.60;0.87;;;;;;;19.30;55.72;101585.00;5035107;28;20980;-72
2022/06/15 08:30:58;;;;;;;0.87;0.60;;;;;;;19.36;56.49;101572.63;5034667;28;21067;-72
2022/06/15 08:33:26;;;;;;;0.70;0.60;;;;;;;19.42;57.35;101567.72;5035030;28;20440;-72
2022/06/15 08:35:53;;;;;;;1.20;0.90;;;;;;;19.45;58.50;101563.53;5034966;28;20522;-71
2022/06/15 08:38:23;;;;;;;2.20;1.07;;;;;;;19.52;56.49;101552.75;5034649;28;21032;-71
2022/06/15 08:40:53;;;;;;;4.00;1.17;;;;;;;19.67;51.11;101560.44;5034858;28;20450;-72
2022/06/15 08:43:33;;;;;;;1.30;0.80;;;;;;;19.84;51.71;101554.75;5035110;28;20526;-72
2022/06/15 08:46:11;;;;;;;1.70;0.93;;;;;;;19.99;52.75;101556.03;5034876;28;20439;-71
2022/06/15 08:49:01;;;;;;;1.60;1.00;;;;;;;20.15;50.02;101554.22;5034727;28;20513;-72
2022/06/15 08:51:34;;;;;;;14.60;1.20;;;;;;;20.22;50.44;101548.16;5034284;28;21063;-71
2022/06/15 08:54:04;;;;;;;3.00;1.20;;;;;;;20.24;51.96;101553.31;5034323;28;20431;-72
2022/06/15 08:56:37;;;;;;;3.80;1.00;;;;;;;20.34;54.42;101552.88;5034621;28;20424;-72
2022/06/15 08:59:10;;;;;;;8.37;1.47;;;;;;;20.41;55.00;101553.09;5034275;28;20510;-72
2022/06/15 09:01:46;;;;;;;2.53;0.90;;;;;;;20.38;50.63;101546.31;5034396;28;20467;-72
2022/06/15 09:04:26;;;;;;;2.03;1.17;;;;;;;20.48;52.25;101552.53;5034181;28;20466;-72
2022/06/15 09:07:05;;;;;;;2.07;0.90;;;;;;;20.52;48.25;101550.72;5034338;28;20423;-72
2022/06/15 09:09:46;;;;;;;2.30;0.90;;;;;;;20.54;50.65;101549.22;5034364;28;20514;-72
2022/06/15 09:15:17;;;;;;;3.23;1.00;;;;;;;20.62;49.84;101544.72;5034366;28;20525;-72
2022/06/15 09:17:47;;;;;;;1.63;0.90;;;;;;;20.72;50.32;101537.94;5034260;28;20469;-72
2022/06/15 09:20:18;;;;;;;1.47;0.90;;;;;;;20.77;51.28;101535.78;5033843;28;20933;-72
2022/06/15 09:22:51;;;;;;;1.47;0.90;;;;;;;20.88;51.88;101544.34;5033870;28;20578;-72
2022/06/15 09:25:23;;;;;;;1.73;1.10;;;;;;;20.99;51.31;101547.44;5034125;28;20510;-72
2022/06/15 09:27:55;;;;;;;6.23;1.67;;;;;;;21.06;50.71;101547.63;5034058;28;20523;-72
2022/06/15 09:30:24;;;;;;;2.43;1.10;;;;;;;21.18;49.85;101539.34;5034010;28;20510;-72
2022/06/15 09:32:57;;;;;;;1.10;0.80;;;;;;;21.23;50.06;101536.34;5033721;28;20858;-72
2022/06/15 09:35:30;;;;;;;1.30;1.10;;;;;;;21.29;46.73;101537.66;5033526;28;20518;-72
2022/06/15 09:38:00;;;;;;;2.03;1.20;;;;;;;21.39;46.60;101548.25;5033792;28;20538;-72
2022/06/15 09:40:33;;;;;;;2.30;0.90;;;;;;;21.34;46.78;101543.00;5033945;28;20442;-72
2022/06/15 09:43:07;;;;;;;1.10;0.80;;;;;;;21.41;47.07;101536.84;5033711;28;20503;-72
2022/06/15 09:45:40;;;;;;;8.17;1.03;;;;;;;21.34;46.69;101531.97;5033524;28;20427;-71
2022/06/15 09:48:13;;;;;;;7.87;1.13;;;;;;;;;;5033155;28;20849;-72
2022/06/15 09:50:46;;;;;;;1.40;0.90;;;;;;;21.43;45.58;101529.06;5033625;28;20518;-71
2022/06/15 09:53:27;;;;;;;1.37;0.70;;;;;;;21.47;46.17;101531.88;5033470;28;20470;-72
2022/06/15 09:55:58;;;;;;;2.47;1.00;;;;;;;21.55;46.42;101531.72;5033333;28;20428;-72
2022/06/15 09:58:28;;;;;;;2.13;0.70;;;;;;;21.69;46.68;101539.59;5033509;28;20443;-71
2022/06/15 10:00:55;;;;;;;1.20;0.80;;;;;;;21.79;48.74;101530.00;5033128;28;20554;-71
2022/06/15 10:03:27;;;;;;;1.90;1.00;;;;;;;21.89;48.65;101533.03;5033484;28;20813;-72
2022/06/15 10:05:57;;;;;;;1.40;0.80;;;;;;;22.05;47.15;101540.53;5033447;28;20971;-72
2022/06/15 10:08:23;;;;;;;1.53;1.10;;;;;;;22.14;46.43;101530.94;5033929;28;20449;-72
2022/06/15 10:10:52;;;;;;;2.10;0.90;;;;;;;22.17;45.68;101521.13;5033259;28;20443;-72
2022/06/15 10:13:29;;;;;;;1.87;1.10;;;;;;;22.29;46.95;101532.09;5033264;28;20522;-71
2022/06/15 10:15:59;;;;;;;1.90;1.23;;;;;;;22.21;44.52;101530.31;5033088;28;20459;-71
2022/06/15 10:18:32;;;;;;;0.87;0.80;;;;;;;22.30;45.04;101522.63;5032486;28;20518;-72
2022/06/15 10:21:06;;;;;;;3.67;1.30;;;;;;;22.35;46.01;101522.34;5033168;28;20467;-72
2022/06/15 10:23:48;;;;;;;1.27;1.10;;;;;;;22.42;47.72;101521.75;5034409;28;20851;-72
2022/06/15 10:26:27;;;;;;;4.13;1.03;;;;;;;22.60;47.98;101520.19;5033145;28;20801;-71
2022/06/15 10:28:54;;;;;;;1.57;0.83;;;;;;;22.70;47.56;101521.56;5033246;28;20849;-72
2022/06/15 10:31:27;;;;;;;1.57;1.13;;;;;;;22.78;45.83;101515.06;5033081;28;20557;-72
2022/06/15 10:33:57;;;;;;;1.40;1.27;;;;;;;22.89;47.08;101507.00;5033374;28;20434;-72
2022/06/15 10:36:30;;;;;;;1.20;0.90;;;;;;;22.95;47.37;101504.78;5032779;28;20447;-71
2022/06/15 10:39:02;;;;;;;1.37;0.93;;;;;;;23.08;47.30;101501.50;5033121;28;20824;-71
2022/06/15 10:41:46;;;;;;;7.43;1.40;;;;;;;23.14;45.12;101500.03;5033010;28;20486;-72
2022/06/15 10:44:15;;;;;;;1.30;1.00;;;;;;;23.15;43.10;101507.19;5033098;28;20473;-71
2022/06/15 10:46:53;;;;;;;3.50;1.00;;;;;;;23.10;44.11;101504.69;5032850;28;20443;-71
2022/06/15 10:49:23;;;;;;;1.50;0.87;;;;;;;23.16;43.61;101499.69;5032637;28;20944;-71
2022/06/15 10:51:50;;;;;;;3.33;0.80;;;;;;;23.41;45.11;101492.66;5032798;28;20574;-71
2022/06/15 10:54:33;;;;;;;5.10;0.80;;;;;;;23.68;45.40;101503.84;5032827;28;20443;-72
2022/06/15 11:03:12;;;;;;;1.13;1.00;;;;;;;23.92;41.78;101489.66;5029267;28;20431;-71
2022/06/15 11:05:40;;;;;;;1.90;1.10;;;;;;;24.08;42.35;101492.28;5032724;28;20522;-71
2022/06/15 11:08:16;;;;;;;2.17;1.10;;;;;;;24.13;40.94;101488.41;5032526;28;20526;-71
2022/06/15 11:10:45;;;;;;;1.17;1.00;;;;;;;24.24;41.81;101483.81;5032776;28;20510;-71
2022/06/15 11:13:35;;;;;;;0.90;0.80;;;;;;;24.55;42.52;101481.94;5032406;28;20573;-71
2022/06/15 11:19:06;;;;;;;1.33;0.87;;;;;;;24.55;38.92;101479.94;5032937;28;20790;-71
2022/06/15 11:21:38;;;;;;;2.37;1.30;;;;;;;24.85;39.73;101470.84;5032551;28;20470;-72
2022/06/15 11:24:12;;;;;;;1.47;1.10;;;;;;;25.20;38.79;101473.28;5032256;28;20497;-72
2022/06/15 11:26:55;;;;;;;1.30;0.83;;;;;;;25.68;39.90;101467.81;5032931;28;20430;-72
2022/06/15 11:29:44;;;;;;;1.50;0.80;;;;;;;26.35;40.21;101467.53;5032675;28;20475;-72
2022/06/15 11:32:42;;;;;;;4.77;1.50;;;;;;;27.04;36.96;101465.88;5035998;28;20497;-72
2022/06/15 11:35:31;;;;;;;2.47;0.80;;;;;;;27.44;36.61;101475.94;5035716;28;20491;-72
2022/06/15 11:38:04;;;;;;;1.20;0.90;;;;;;;27.74;37.27;101474.81;5036101;28;20439;-73
2022/06/15 11:40:40;;;;;;;1.43;1.00;;;;;;;28.20;36.56;101463.66;5036092;28;20514;-71
2022/06/15 11:43:15;;;;;;;2.00;1.00;;;;;;;28.63;35.85;101469.94;5036024;28;20515;-71
2022/06/15 11:46:02;;;;;;;1.70;1.33;;;;;;;28.80;34.23;101462.69;5035625;28;20827;-73
2022/06/15 11:48:41;;;;;;;1.43;0.90;;;;;;;29.18;35.77;101457.34;5035897;28;20431;-72
2022/06/15 11:51:19;;;;;;;1.40;1.00;;;;;;;29.64;34.58;101461.84;5035462;28;20549;-72
2022/06/15 11:54:01;;;;;;;1.30;1.00;;;;;;;29.48;31.72;101458.75;5035781;28;20554;-72
2022/06/15 11:56:35;;;;;;;3.47;1.13;;;;;;;29.16;33.41;101466.13;5035476;28;20469;-72
2022/06/15 11:59:11;;;;;;;1.57;0.80;;;;;;;29.14;33.91;101449.00;5035357;28;20467;-72